Yasuj, Iran
Current Conditions -  °F | °C
As of 3:00 PM on Sunday 21 Dec 2014 (Local Time) from OISY Reporting Station
Light Rain Light Rain  
Wind Chill: 37°   Ceiling: 8000
Heat Index: 37°   Visibility: 5mi
Dew Point: 36°   Wind: 0mph
Humidity: 93%   Direction: NA
Pressure: 30.12"   Gusts: NA
Location:  30.67°N, 51.58°E
Report Text: OISY 211200Z 00000KT 8000 -RA FEW030CB SCT045 OVC080 03/02 Q1020
Loading
Personal Weather Stations






























Interactive Weather Map New forecast layout! Learn more

10-Day Weather Forecast

Advertisements
Track Severe Weather on mobile